sensor_id;sensor_type;location;lat;lon;timestamp;P1;durP1;ratioP1;P2;durP2;ratioP2
56567;SDS011;42456;49.956;20.004;2023-11-22T00:01:51;11.80;;;6.20;;
56567;SDS011;42456;49.956;20.004;2023-11-22T00:04:18;14.90;;;7.50;;
56567;SDS011;42456;49.956;20.004;2023-11-22T00:06:44;15.50;;;7.90;;
56567;SDS011;42456;49.956;20.004;2023-11-22T00:09:11;18.00;;;10.00;;
56567;SDS011;42456;49.956;20.004;2023-11-22T00:11:38;24.90;;;11.90;;
56567;SDS011;42456;49.956;20.004;2023-11-22T00:14:05;22.50;;;11.40;;
56567;SDS011;42456;49.956;20.004;2023-11-22T00:16:33;25.00;;;12.70;;
56567;SDS011;42456;49.956;20.004;2023-11-22T00:19:00;21.90;;;11.70;;
56567;SDS011;42456;49.956;20.004;2023-11-22T00:21:27;22.00;;;11.20;;
56567;SDS011;42456;49.956;20.004;2023-11-22T00:23:54;24.50;;;12.20;;
56567;SDS011;42456;49.956;20.004;2023-11-22T00:26:21;22.90;;;12.50;;
56567;SDS011;42456;49.956;20.004;2023-11-22T00:28:48;21.20;;;11.30;;
56567;SDS011;42456;49.956;20.004;2023-11-22T00:31:15;24.50;;;13.40;;
56567;SDS011;42456;49.956;20.004;2023-11-22T00:33:42;29.20;;;13.60;;
56567;SDS011;42456;49.956;20.004;2023-11-22T00:36:09;25.80;;;13.40;;
56567;SDS011;42456;49.956;20.004;2023-11-22T00:38:36;27.50;;;13.60;;
56567;SDS011;42456;49.956;20.004;2023-11-22T00:41:05;29.30;;;14.30;;
56567;SDS011;42456;49.956;20.004;2023-11-22T00:43:34;26.80;;;15.30;;
56567;SDS011;42456;49.956;20.004;2023-11-22T00:46:01;26.40;;;14.50;;
56567;SDS011;42456;49.956;20.004;2023-11-22T00:48:28;28.50;;;14.00;;
56567;SDS011;42456;49.956;20.004;2023-11-22T00:50:55;26.80;;;14.40;;
56567;SDS011;42456;49.956;20.004;2023-11-22T00:53:21;26.90;;;14.80;;
56567;SDS011;42456;49.956;20.004;2023-11-22T00:55:49;26.80;;;15.00;;
56567;SDS011;42456;49.956;20.004;2023-11-22T00:58:16;24.40;;;13.50;;
56567;SDS011;42456;49.956;20.004;2023-11-22T01:00:43;25.80;;;13.40;;
56567;SDS011;42456;49.956;20.004;2023-11-22T01:03:11;23.20;;;12.20;;
56567;SDS011;42456;49.956;20.004;2023-11-22T01:05:39;22.10;;;12.10;;
56567;SDS011;42456;49.956;20.004;2023-11-22T01:08:06;30.00;;;14.40;;
56567;SDS011;42456;49.956;20.004;2023-11-22T01:10:32;30.20;;;15.40;;
56567;SDS011;42456;49.956;20.004;2023-11-22T01:12:59;27.10;;;12.70;;
56567;SDS011;42456;49.956;20.004;2023-11-22T01:15:26;22.10;;;12.00;;
56567;SDS011;42456;49.956;20.004;2023-11-22T01:17:53;25.10;;;13.90;;
56567;SDS011;42456;49.956;20.004;2023-11-22T01:20:20;25.50;;;13.40;;
56567;SDS011;42456;49.956;20.004;2023-11-22T01:22:49;25.20;;;13.30;;
56567;SDS011;42456;49.956;20.004;2023-11-22T01:25:16;26.80;;;14.20;;
56567;SDS011;42456;49.956;20.004;2023-11-22T01:27:42;23.90;;;12.80;;
56567;SDS011;42456;49.956;20.004;2023-11-22T01:30:09;19.30;;;10.90;;
56567;SDS011;42456;49.956;20.004;2023-11-22T01:32:37;24.40;;;11.70;;
56567;SDS011;42456;49.956;20.004;2023-11-22T01:35:04;25.70;;;12.10;;
56567;SDS011;42456;49.956;20.004;2023-11-22T01:37:32;24.50;;;12.80;;
56567;SDS011;42456;49.956;20.004;2023-11-22T01:39:59;24.40;;;13.80;;
56567;SDS011;42456;49.956;20.004;2023-11-22T01:42:26;24.20;;;12.00;;
56567;SDS011;42456;49.956;20.004;2023-11-22T01:44:53;25.90;;;13.40;;
56567;SDS011;42456;49.956;20.004;2023-11-22T01:47:19;24.20;;;12.40;;
56567;SDS011;42456;49.956;20.004;2023-11-22T01:49:46;21.30;;;9.90;;
56567;SDS011;42456;49.956;20.004;2023-11-22T01:52:13;26.40;;;13.70;;
56567;SDS011;42456;49.956;20.004;2023-11-22T01:54:41;24.50;;;12.50;;
56567;SDS011;42456;49.956;20.004;2023-11-22T01:57:09;26.10;;;11.90;;
56567;SDS011;42456;49.956;20.004;2023-11-22T01:59:36;24.80;;;12.90;;
56567;SDS011;42456;49.956;20.004;2023-11-22T02:02:04;27.70;;;13.70;;
56567;SDS011;42456;49.956;20.004;2023-11-22T02:04:31;23.60;;;12.00;;
56567;SDS011;42456;49.956;20.004;2023-11-22T02:06:58;26.10;;;12.50;;
56567;SDS011;42456;49.956;20.004;2023-11-22T02:09:25;23.60;;;12.50;;
56567;SDS011;42456;49.956;20.004;2023-11-22T02:11:52;19.80;;;9.20;;
56567;SDS011;42456;49.956;20.004;2023-11-22T02:14:19;21.00;;;11.40;;
56567;SDS011;42456;49.956;20.004;2023-11-22T02:16:46;23.80;;;11.90;;
56567;SDS011;42456;49.956;20.004;2023-11-22T02:19:16;23.90;;;12.30;;
56567;SDS011;42456;49.956;20.004;2023-11-22T02:21:44;23.90;;;11.80;;
56567;SDS011;42456;49.956;20.004;2023-11-22T02:24:12;23.90;;;12.50;;
56567;SDS011;42456;49.956;20.004;2023-11-22T02:26:43;22.20;;;11.70;;
56567;SDS011;42456;49.956;20.004;2023-11-22T02:29:11;26.00;;;13.30;;
56567;SDS011;42456;49.956;20.004;2023-11-22T02:31:42;22.60;;;11.30;;
56567;SDS011;42456;49.956;20.004;2023-11-22T02:34:12;19.90;;;10.50;;
56567;SDS011;42456;49.956;20.004;2023-11-22T02:36:38;21.80;;;11.40;;
56567;SDS011;42456;49.956;20.004;2023-11-22T02:39:06;22.00;;;11.20;;
56567;SDS011;42456;49.956;20.004;2023-11-22T02:41:33;23.90;;;11.30;;
56567;SDS011;42456;49.956;20.004;2023-11-22T02:44:01;22.40;;;11.40;;
56567;SDS011;42456;49.956;20.004;2023-11-22T02:46:28;21.40;;;9.50;;
56567;SDS011;42456;49.956;20.004;2023-11-22T02:48:57;22.90;;;11.70;;
56567;SDS011;42456;49.956;20.004;2023-11-22T02:51:25;22.10;;;12.00;;
56567;SDS011;42456;49.956;20.004;2023-11-22T02:53:53;21.40;;;10.20;;
56567;SDS011;42456;49.956;20.004;2023-11-22T02:56:20;22.90;;;11.40;;
56567;SDS011;42456;49.956;20.004;2023-11-22T02:58:47;24.20;;;12.60;;
56567;SDS011;42456;49.956;20.004;2023-11-22T03:01:14;21.20;;;11.60;;
56567;SDS011;42456;49.956;20.004;2023-11-22T03:03:41;21.20;;;11.20;;
56567;SDS011;42456;49.956;20.004;2023-11-22T03:06:08;20.30;;;10.00;;
56567;SDS011;42456;49.956;20.004;2023-11-22T03:08:35;23.30;;;11.30;;
56567;SDS011;42456;49.956;20.004;2023-11-22T03:11:02;23.90;;;13.30;;
56567;SDS011;42456;49.956;20.004;2023-11-22T03:13:29;25.00;;;12.20;;
56567;SDS011;42456;49.956;20.004;2023-11-22T03:15:56;25.80;;;13.20;;
56567;SDS011;42456;49.956;20.004;2023-11-22T03:18:23;25.70;;;13.60;;
56567;SDS011;42456;49.956;20.004;2023-11-22T03:20:50;27.90;;;15.30;;
56567;SDS011;42456;49.956;20.004;2023-11-22T03:23:21;30.50;;;15.70;;
56567;SDS011;42456;49.956;20.004;2023-11-22T03:25:48;33.40;;;17.10;;
56567;SDS011;42456;49.956;20.004;2023-11-22T03:28:15;28.60;;;14.40;;
56567;SDS011;42456;49.956;20.004;2023-11-22T03:30:41;26.80;;;14.40;;
56567;SDS011;42456;49.956;20.004;2023-11-22T03:33:09;24.30;;;12.10;;
56567;SDS011;42456;49.956;20.004;2023-11-22T03:35:36;24.50;;;13.20;;
56567;SDS011;42456;49.956;20.004;2023-11-22T03:38:02;29.20;;;15.10;;
56567;SDS011;42456;49.956;20.004;2023-11-22T03:40:29;24.20;;;12.10;;
56567;SDS011;42456;49.956;20.004;2023-11-22T03:42:56;24.10;;;12.10;;
56567;SDS011;42456;49.956;20.004;2023-11-22T03:45:23;23.60;;;11.50;;
56567;SDS011;42456;49.956;20.004;2023-11-22T03:47:51;22.40;;;11.20;;
56567;SDS011;42456;49.956;20.004;2023-11-22T03:50:17;23.10;;;12.20;;
56567;SDS011;42456;49.956;20.004;2023-11-22T03:52:44;25.90;;;12.60;;
56567;SDS011;42456;49.956;20.004;2023-11-22T03:55:11;20.70;;;10.20;;
56567;SDS011;42456;49.956;20.004;2023-11-22T03:57:38;21.10;;;10.40;;
56567;SDS011;42456;49.956;20.004;2023-11-22T04:00:05;22.60;;;11.50;;
56567;SDS011;42456;49.956;20.004;2023-11-22T04:02:33;21.70;;;11.30;;
56567;SDS011;42456;49.956;20.004;2023-11-22T04:05:00;20.90;;;10.70;;
56567;SDS011;42456;49.956;20.004;2023-11-22T04:07:26;21.80;;;12.00;;
56567;SDS011;42456;49.956;20.004;2023-11-22T04:09:53;21.10;;;10.40;;
56567;SDS011;42456;49.956;20.004;2023-11-22T04:12:20;23.00;;;11.10;;
56567;SDS011;42456;49.956;20.004;2023-11-22T04:14:47;19.90;;;9.40;;
56567;SDS011;42456;49.956;20.004;2023-11-22T04:17:14;25.70;;;13.00;;
56567;SDS011;42456;49.956;20.004;2023-11-22T04:19:42;27.40;;;13.70;;
56567;SDS011;42456;49.956;20.004;2023-11-22T04:22:09;29.00;;;13.90;;
56567;SDS011;42456;49.956;20.004;2023-11-22T04:24:37;29.50;;;14.10;;
56567;SDS011;42456;49.956;20.004;2023-11-22T04:27:04;29.30;;;15.20;;
56567;SDS011;42456;49.956;20.004;2023-11-22T04:29:30;26.90;;;12.40;;
56567;SDS011;42456;49.956;20.004;2023-11-22T04:31:58;29.60;;;13.30;;
56567;SDS011;42456;49.956;20.004;2023-11-22T04:34:24;26.00;;;13.50;;
56567;SDS011;42456;49.956;20.004;2023-11-22T04:36:51;26.90;;;13.20;;
56567;SDS011;42456;49.956;20.004;2023-11-22T04:39:18;26.00;;;13.10;;
56567;SDS011;42456;49.956;20.004;2023-11-22T04:41:45;23.80;;;12.30;;
56567;SDS011;42456;49.956;20.004;2023-11-22T04:44:11;22.80;;;11.30;;
56567;SDS011;42456;49.956;20.004;2023-11-22T04:46:38;31.80;;;15.00;;
56567;SDS011;42456;49.956;20.004;2023-11-22T04:49:05;24.90;;;12.60;;
56567;SDS011;42456;49.956;20.004;2023-11-22T04:51:34;21.60;;;10.40;;
56567;SDS011;42456;49.956;20.004;2023-11-22T04:54:00;25.30;;;11.60;;
56567;SDS011;42456;49.956;20.004;2023-11-22T04:56:27;23.10;;;11.50;;
56567;SDS011;42456;49.956;20.004;2023-11-22T04:58:54;22.70;;;11.60;;
56567;SDS011;42456;49.956;20.004;2023-11-22T05:01:21;29.60;;;14.70;;
56567;SDS011;42456;49.956;20.004;2023-11-22T05:03:50;29.10;;;13.80;;
56567;SDS011;42456;49.956;20.004;2023-11-22T05:06:17;26.20;;;13.40;;
56567;SDS011;42456;49.956;20.004;2023-11-22T05:08:44;25.30;;;12.10;;
56567;SDS011;42456;49.956;20.004;2023-11-22T05:11:10;28.00;;;12.80;;
56567;SDS011;42456;49.956;20.004;2023-11-22T05:13:38;26.10;;;14.00;;
56567;SDS011;42456;49.956;20.004;2023-11-22T05:16:05;31.30;;;15.70;;
56567;SDS011;42456;49.956;20.004;2023-11-22T05:18:32;21.80;;;10.60;;
56567;SDS011;42456;49.956;20.004;2023-11-22T05:20:58;26.90;;;13.70;;
56567;SDS011;42456;49.956;20.004;2023-11-22T05:23:25;24.00;;;12.00;;
56567;SDS011;42456;49.956;20.004;2023-11-22T05:25:52;23.70;;;11.60;;
56567;SDS011;42456;49.956;20.004;2023-11-22T05:28:19;29.80;;;14.80;;
56567;SDS011;42456;49.956;20.004;2023-11-22T05:30:45;24.00;;;12.30;;
56567;SDS011;42456;49.956;20.004;2023-11-22T05:33:12;27.00;;;12.80;;
56567;SDS011;42456;49.956;20.004;2023-11-22T05:35:39;27.40;;;13.20;;
56567;SDS011;42456;49.956;20.004;2023-11-22T05:38:08;25.40;;;12.20;;
56567;SDS011;42456;49.956;20.004;2023-11-22T05:40:35;25.40;;;12.50;;
56567;SDS011;42456;49.956;20.004;2023-11-22T05:43:02;26.80;;;13.30;;
56567;SDS011;42456;49.956;20.004;2023-11-22T05:45:28;23.40;;;12.90;;
56567;SDS011;42456;49.956;20.004;2023-11-22T05:47:55;25.20;;;13.40;;
56567;SDS011;42456;49.956;20.004;2023-11-22T05:50:22;27.10;;;13.20;;
56567;SDS011;42456;49.956;20.004;2023-11-22T05:52:50;29.40;;;13.70;;
56567;SDS011;42456;49.956;20.004;2023-11-22T05:55:17;28.40;;;14.00;;
56567;SDS011;42456;49.956;20.004;2023-11-22T05:57:58;25.10;;;13.30;;
56567;SDS011;42456;49.956;20.004;2023-11-22T06:00:25;26.50;;;12.50;;
56567;SDS011;42456;49.956;20.004;2023-11-22T06:02:52;28.10;;;13.90;;
56567;SDS011;42456;49.956;20.004;2023-11-22T06:05:20;27.40;;;12.80;;
56567;SDS011;42456;49.956;20.004;2023-11-22T06:07:47;21.40;;;10.90;;
56567;SDS011;42456;49.956;20.004;2023-11-22T06:10:14;23.70;;;11.60;;
56567;SDS011;42456;49.956;20.004;2023-11-22T06:12:42;26.20;;;11.90;;
56567;SDS011;42456;49.956;20.004;2023-11-22T06:15:10;23.50;;;11.90;;
56567;SDS011;42456;49.956;20.004;2023-11-22T06:17:37;28.80;;;13.20;;
56567;SDS011;42456;49.956;20.004;2023-11-22T06:20:05;24.50;;;11.90;;
56567;SDS011;42456;49.956;20.004;2023-11-22T06:22:33;23.50;;;10.20;;
56567;SDS011;42456;49.956;20.004;2023-11-22T06:25:00;26.50;;;13.20;;
56567;SDS011;42456;49.956;20.004;2023-11-22T06:27:27;24.00;;;12.00;;
56567;SDS011;42456;49.956;20.004;2023-11-22T06:29:55;23.00;;;12.30;;
56567;SDS011;42456;49.956;20.004;2023-11-22T06:32:21;25.00;;;11.90;;
56567;SDS011;42456;49.956;20.004;2023-11-22T06:34:48;22.00;;;10.60;;
56567;SDS011;42456;49.956;20.004;2023-11-22T06:37:15;23.40;;;10.50;;
56567;SDS011;42456;49.956;20.004;2023-11-22T06:39:42;24.00;;;10.90;;
56567;SDS011;42456;49.956;20.004;2023-11-22T06:42:10;21.20;;;9.80;;
56567;SDS011;42456;49.956;20.004;2023-11-22T06:44:37;24.00;;;11.10;;
56567;SDS011;42456;49.956;20.004;2023-11-22T06:47:08;23.10;;;11.10;;
56567;SDS011;42456;49.956;20.004;2023-11-22T06:49:35;21.60;;;10.80;;
56567;SDS011;42456;49.956;20.004;2023-11-22T06:52:03;27.10;;;12.30;;
56567;SDS011;42456;49.956;20.004;2023-11-22T06:54:30;22.40;;;10.80;;
56567;SDS011;42456;49.956;20.004;2023-11-22T06:56:57;25.40;;;12.00;;
56567;SDS011;42456;49.956;20.004;2023-11-22T06:59:24;23.80;;;11.60;;
56567;SDS011;42456;49.956;20.004;2023-11-22T07:01:51;29.90;;;13.20;;
56567;SDS011;42456;49.956;20.004;2023-11-22T07:04:18;26.70;;;13.60;;
56567;SDS011;42456;49.956;20.004;2023-11-22T07:06:45;31.30;;;14.20;;
56567;SDS011;42456;49.956;20.004;2023-11-22T07:09:12;26.00;;;11.30;;
56567;SDS011;42456;49.956;20.004;2023-11-22T07:11:40;27.30;;;12.40;;
56567;SDS011;42456;49.956;20.004;2023-11-22T07:14:07;25.50;;;11.80;;
56567;SDS011;42456;49.956;20.004;2023-11-22T07:16:34;26.20;;;11.90;;
56567;SDS011;42456;49.956;20.004;2023-11-22T07:19:01;22.40;;;11.30;;
56567;SDS011;42456;49.956;20.004;2023-11-22T07:21:29;24.70;;;12.50;;
56567;SDS011;42456;49.956;20.004;2023-11-22T07:23:56;23.20;;;11.40;;
56567;SDS011;42456;49.956;20.004;2023-11-22T07:26:25;26.30;;;11.70;;
56567;SDS011;42456;49.956;20.004;2023-11-22T07:28:55;25.50;;;11.70;;
56567;SDS011;42456;49.956;20.004;2023-11-22T07:31:21;24.30;;;12.90;;
56567;SDS011;42456;49.956;20.004;2023-11-22T07:33:49;24.20;;;12.30;;
56567;SDS011;42456;49.956;20.004;2023-11-22T07:36:16;22.80;;;11.20;;
56567;SDS011;42456;49.956;20.004;2023-11-22T07:38:43;23.60;;;11.10;;
56567;SDS011;42456;49.956;20.004;2023-11-22T07:41:10;24.20;;;11.30;;
56567;SDS011;42456;49.956;20.004;2023-11-22T07:43:37;27.50;;;13.00;;
56567;SDS011;42456;49.956;20.004;2023-11-22T07:46:07;25.10;;;12.50;;
56567;SDS011;42456;49.956;20.004;2023-11-22T07:48:40;21.30;;;11.30;;
56567;SDS011;42456;49.956;20.004;2023-11-22T07:51:08;29.40;;;14.50;;
56567;SDS011;42456;49.956;20.004;2023-11-22T07:53:35;23.40;;;11.10;;
56567;SDS011;42456;49.956;20.004;2023-11-22T07:56:02;25.20;;;11.60;;
56567;SDS011;42456;49.956;20.004;2023-11-22T07:58:32;22.00;;;9.80;;
56567;SDS011;42456;49.956;20.004;2023-11-22T08:01:03;25.10;;;12.30;;
56567;SDS011;42456;49.956;20.004;2023-11-22T08:03:31;21.30;;;9.90;;
56567;SDS011;42456;49.956;20.004;2023-11-22T08:05:58;21.40;;;10.50;;
56567;SDS011;42456;49.956;20.004;2023-11-22T08:08:26;22.60;;;11.00;;
56567;SDS011;42456;49.956;20.004;2023-11-22T08:10:53;21.90;;;10.30;;
56567;SDS011;42456;49.956;20.004;2023-11-22T08:13:20;21.10;;;10.40;;
56567;SDS011;42456;49.956;20.004;2023-11-22T08:15:49;22.20;;;10.40;;
56567;SDS011;42456;49.956;20.004;2023-11-22T08:18:16;22.60;;;11.00;;
56567;SDS011;42456;49.956;20.004;2023-11-22T08:20:44;17.90;;;9.00;;
56567;SDS011;42456;49.956;20.004;2023-11-22T08:23:11;19.20;;;9.40;;
56567;SDS011;42456;49.956;20.004;2023-11-22T08:25:40;22.60;;;11.20;;
56567;SDS011;42456;49.956;20.004;2023-11-22T08:28:10;18.80;;;8.50;;
56567;SDS011;42456;49.956;20.004;2023-11-22T08:30:37;19.00;;;10.00;;
56567;SDS011;42456;49.956;20.004;2023-11-22T08:33:04;19.30;;;9.70;;
56567;SDS011;42456;49.956;20.004;2023-11-22T08:35:31;19.30;;;8.90;;
56567;SDS011;42456;49.956;20.004;2023-11-22T08:37:58;20.10;;;10.10;;
56567;SDS011;42456;49.956;20.004;2023-11-22T08:40:25;20.10;;;10.50;;
56567;SDS011;42456;49.956;20.004;2023-11-22T08:42:52;18.30;;;8.30;;
56567;SDS011;42456;49.956;20.004;2023-11-22T08:45:19;18.10;;;8.20;;
56567;SDS011;42456;49.956;20.004;2023-11-22T08:47:47;19.20;;;8.80;;
56567;SDS011;42456;49.956;20.004;2023-11-22T08:50:42;19.70;;;9.10;;
56567;SDS011;42456;49.956;20.004;2023-11-22T08:53:23;19.00;;;9.10;;
56567;SDS011;42456;49.956;20.004;2023-11-22T08:56:03;19.00;;;8.70;;
56567;SDS011;42456;49.956;20.004;2023-11-22T08:58:32;24.00;;;10.50;;
56567;SDS011;42456;49.956;20.004;2023-11-22T09:01:19;18.90;;;8.60;;
56567;SDS011;42456;49.956;20.004;2023-11-22T09:04:00;18.70;;;8.90;;
56567;SDS011;42456;49.956;20.004;2023-11-22T09:06:27;20.30;;;9.60;;
56567;SDS011;42456;49.956;20.004;2023-11-22T09:11:57;16.90;;;8.00;;
56567;SDS011;42456;49.956;20.004;2023-11-22T09:14:39;17.60;;;8.40;;
56567;SDS011;42456;49.956;20.004;2023-11-22T09:17:20;19.00;;;9.10;;
56567;SDS011;42456;49.956;20.004;2023-11-22T09:20:14;17.60;;;8.50;;
56567;SDS011;42456;49.956;20.004;2023-11-22T09:23:14;18.10;;;8.50;;
56567;SDS011;42456;49.956;20.004;2023-11-22T09:28:35;17.00;;;7.80;;
56567;SDS011;42456;49.956;20.004;2023-11-22T09:31:02;17.00;;;8.10;;
56567;SDS011;42456;49.956;20.004;2023-11-22T09:39:34;16.30;;;7.50;;
56567;SDS011;42456;49.956;20.004;2023-11-22T09:42:02;16.80;;;8.50;;
56567;SDS011;42456;49.956;20.004;2023-11-22T09:47:38;20.10;;;9.70;;
56567;SDS011;42456;49.956;20.004;2023-11-22T09:53:11;19.00;;;9.10;;
56567;SDS011;42456;49.956;20.004;2023-11-22T09:55:46;17.10;;;8.20;;
56567;SDS011;42456;49.956;20.004;2023-11-22T09:58:27;19.20;;;8.80;;
56567;SDS011;42456;49.956;20.004;2023-11-22T10:01:11;18.20;;;8.20;;
56567;SDS011;42456;49.956;20.004;2023-11-22T10:03:52;19.00;;;8.30;;
56567;SDS011;42456;49.956;20.004;2023-11-22T10:06:32;17.80;;;8.60;;
56567;SDS011;42456;49.956;20.004;2023-11-22T10:09:26;18.60;;;8.40;;
56567;SDS011;42456;49.956;20.004;2023-11-22T10:12:01;14.90;;;7.20;;
56567;SDS011;42456;49.956;20.004;2023-11-22T10:14:28;21.10;;;9.10;;
56567;SDS011;42456;49.956;20.004;2023-11-22T10:16:58;17.30;;;8.10;;
56567;SDS011;42456;49.956;20.004;2023-11-22T10:25:23;17.70;;;7.90;;
56567;SDS011;42456;49.956;20.004;2023-11-22T10:27:50;18.40;;;8.70;;
56567;SDS011;42456;49.956;20.004;2023-11-22T10:32:57;20.00;;;9.30;;
56567;SDS011;42456;49.956;20.004;2023-11-22T10:36:58;16.60;;;7.40;;
56567;SDS011;42456;49.956;20.004;2023-11-22T10:40:44;17.40;;;8.10;;
56567;SDS011;42456;49.956;20.004;2023-11-22T10:44:24;14.70;;;8.10;;
56567;SDS011;42456;49.956;20.004;2023-11-22T10:47:28;16.50;;;8.40;;
56567;SDS011;42456;49.956;20.004;2023-11-22T10:51:30;16.80;;;7.80;;
56567;SDS011;42456;49.956;20.004;2023-11-22T10:54:48;19.30;;;7.40;;
56567;SDS011;42456;49.956;20.004;2023-11-22T10:58:48;18.20;;;8.10;;
56567;SDS011;42456;49.956;20.004;2023-11-22T11:07:08;18.00;;;8.80;;
56567;SDS011;42456;49.956;20.004;2023-11-22T11:10:53;18.20;;;7.90;;
56567;SDS011;42456;49.956;20.004;2023-11-22T11:14:38;17.80;;;7.80;;
56567;SDS011;42456;49.956;20.004;2023-11-22T11:18:00;17.60;;;7.70;;
56567;SDS011;42456;49.956;20.004;2023-11-22T11:24:39;17.50;;;7.60;;
56567;SDS011;42456;49.956;20.004;2023-11-22T11:28:28;21.90;;;10.20;;
56567;SDS011;42456;49.956;20.004;2023-11-22T11:31:32;15.50;;;7.00;;
56567;SDS011;42456;49.956;20.004;2023-11-22T11:37:50;14.10;;;6.50;;
56567;SDS011;42456;49.956;20.004;2023-11-22T11:46:36;19.20;;;8.20;;
56567;SDS011;42456;49.956;20.004;2023-11-22T11:49:32;16.60;;;8.00;;
56567;SDS011;42456;49.956;20.004;2023-11-22T11:51:59;17.50;;;7.90;;
56567;SDS011;42456;49.956;20.004;2023-11-22T11:54:42;16.10;;;7.40;;
56567;SDS011;42456;49.956;20.004;2023-11-22T11:57:25;18.80;;;8.60;;
56567;SDS011;42456;49.956;20.004;2023-11-22T11:59:51;18.30;;;8.70;;
56567;SDS011;42456;49.956;20.004;2023-11-22T12:02:39;17.10;;;8.30;;
56567;SDS011;42456;49.956;20.004;2023-11-22T12:05:07;17.30;;;7.60;;
56567;SDS011;42456;49.956;20.004;2023-11-22T12:07:37;18.50;;;8.20;;
56567;SDS011;42456;49.956;20.004;2023-11-22T12:11:07;16.70;;;7.00;;
56567;SDS011;42456;49.956;20.004;2023-11-22T12:13:58;15.60;;;6.90;;
56567;SDS011;42456;49.956;20.004;2023-11-22T12:17:27;18.10;;;8.00;;
56567;SDS011;42456;49.956;20.004;2023-11-22T12:23:33;18.20;;;9.00;;
56567;SDS011;42456;49.956;20.004;2023-11-22T12:26:52;21.10;;;8.30;;
56567;SDS011;42456;49.956;20.004;2023-11-22T12:34:22;16.70;;;7.40;;
56567;SDS011;42456;49.956;20.004;2023-11-22T12:37:58;18.00;;;8.60;;
56567;SDS011;42456;49.956;20.004;2023-11-22T12:41:36;19.80;;;9.30;;
56567;SDS011;42456;49.956;20.004;2023-11-22T12:45:31;17.30;;;8.10;;
56567;SDS011;42456;49.956;20.004;2023-11-22T12:49:12;15.60;;;6.70;;
56567;SDS011;42456;49.956;20.004;2023-11-22T12:52:53;21.70;;;10.40;;
56567;SDS011;42456;49.956;20.004;2023-11-22T12:56:14;21.80;;;10.70;;
56567;SDS011;42456;49.956;20.004;2023-11-22T12:59:51;20.70;;;10.00;;
56567;SDS011;42456;49.956;20.004;2023-11-22T13:03:30;18.40;;;8.30;;
56567;SDS011;42456;49.956;20.004;2023-11-22T13:07:10;19.60;;;9.30;;
56567;SDS011;42456;49.956;20.004;2023-11-22T13:09:56;51.90;;;19.90;;
56567;SDS011;42456;49.956;20.004;2023-11-22T13:12:58;26.50;;;12.20;;
56567;SDS011;42456;49.956;20.004;2023-11-22T13:16:07;21.00;;;9.90;;
56567;SDS011;42456;49.956;20.004;2023-11-22T13:19:46;30.10;;;14.50;;
56567;SDS011;42456;49.956;20.004;2023-11-22T13:22:29;29.40;;;14.10;;
56567;SDS011;42456;49.956;20.004;2023-11-22T13:25:01;25.10;;;11.20;;
56567;SDS011;42456;49.956;20.004;2023-11-22T13:27:42;37.40;;;19.40;;
56567;SDS011;42456;49.956;20.004;2023-11-22T13:30:09;25.60;;;12.10;;
56567;SDS011;42456;49.956;20.004;2023-11-22T13:32:56;24.40;;;11.80;;
56567;SDS011;42456;49.956;20.004;2023-11-22T13:38:07;18.70;;;9.30;;
56567;SDS011;42456;49.956;20.004;2023-11-22T13:40:51;19.60;;;9.30;;
56567;SDS011;42456;49.956;20.004;2023-11-22T13:44:19;22.90;;;11.10;;
56567;SDS011;42456;49.956;20.004;2023-11-22T13:47:23;23.70;;;11.10;;
56567;SDS011;42456;49.956;20.004;2023-11-22T13:53:08;21.50;;;9.60;;
56567;SDS011;42456;49.956;20.004;2023-11-22T13:56:51;19.50;;;9.30;;
56567;SDS011;42456;49.956;20.004;2023-11-22T14:00:48;16.90;;;8.20;;
56567;SDS011;42456;49.956;20.004;2023-11-22T14:08:27;16.30;;;8.10;;
56567;SDS011;42456;49.956;20.004;2023-11-22T14:12:05;16.90;;;7.20;;
56567;SDS011;42456;49.956;20.004;2023-11-22T14:15:21;21.10;;;11.10;;
56567;SDS011;42456;49.956;20.004;2023-11-22T14:18:49;21.50;;;9.80;;
56567;SDS011;42456;49.956;20.004;2023-11-22T14:22:39;23.20;;;11.20;;
56567;SDS011;42456;49.956;20.004;2023-11-22T14:26:21;22.40;;;9.30;;
56567;SDS011;42456;49.956;20.004;2023-11-22T14:30:06;20.90;;;9.50;;
56567;SDS011;42456;49.956;20.004;2023-11-22T14:33:26;20.50;;;9.20;;
56567;SDS011;42456;49.956;20.004;2023-11-22T14:36:33;23.30;;;9.90;;
56567;SDS011;42456;49.956;20.004;2023-11-22T14:52:18;20.90;;;9.60;;
56567;SDS011;42456;49.956;20.004;2023-11-22T14:56:00;20.20;;;9.20;;
56567;SDS011;42456;49.956;20.004;2023-11-22T14:59:38;19.80;;;9.20;;
56567;SDS011;42456;49.956;20.004;2023-11-22T15:03:38;20.10;;;9.20;;
56567;SDS011;42456;49.956;20.004;2023-11-22T15:07:25;19.40;;;8.70;;
56567;SDS011;42456;49.956;20.004;2023-11-22T15:12:56;21.20;;;10.10;;
56567;SDS011;42456;49.956;20.004;2023-11-22T15:15:37;24.10;;;10.50;;
56567;SDS011;42456;49.956;20.004;2023-11-22T15:18:19;20.10;;;10.20;;
56567;SDS011;42456;49.956;20.004;2023-11-22T15:22:09;23.30;;;9.60;;
56567;SDS011;42456;49.956;20.004;2023-11-22T15:27:28;19.00;;;9.30;;
56567;SDS011;42456;49.956;20.004;2023-11-22T15:29:55;25.40;;;11.20;;
56567;SDS011;42456;49.956;20.004;2023-11-22T15:32:35;23.10;;;10.70;;
56567;SDS011;42456;49.956;20.004;2023-11-22T15:35:03;24.00;;;11.30;;
56567;SDS011;42456;49.956;20.004;2023-11-22T15:37:32;25.90;;;12.40;;
56567;SDS011;42456;49.956;20.004;2023-11-22T15:42:55;24.10;;;11.70;;
56567;SDS011;42456;49.956;20.004;2023-11-22T15:45:22;28.50;;;12.00;;
56567;SDS011;42456;49.956;20.004;2023-11-22T15:47:48;24.70;;;12.00;;
56567;SDS011;42456;49.956;20.004;2023-11-22T15:52:57;17.60;;;8.30;;
56567;SDS011;42456;49.956;20.004;2023-11-22T15:55:35;22.20;;;9.70;;
56567;SDS011;42456;49.956;20.004;2023-11-22T15:58:15;17.30;;;7.80;;
56567;SDS011;42456;49.956;20.004;2023-11-22T16:00:43;17.00;;;6.80;;
56567;SDS011;42456;49.956;20.004;2023-11-22T16:03:09;19.00;;;9.10;;
56567;SDS011;42456;49.956;20.004;2023-11-22T16:05:56;15.20;;;7.20;;
56567;SDS011;42456;49.956;20.004;2023-11-22T16:08:24;14.20;;;7.10;;
56567;SDS011;42456;49.956;20.004;2023-11-22T16:11:05;16.60;;;7.40;;
56567;SDS011;42456;49.956;20.004;2023-11-22T16:14:18;14.40;;;6.50;;
56567;SDS011;42456;49.956;20.004;2023-11-22T16:19:42;14.90;;;6.30;;
56567;SDS011;42456;49.956;20.004;2023-11-22T16:22:11;14.10;;;6.70;;
56567;SDS011;42456;49.956;20.004;2023-11-22T16:25:05;16.90;;;8.30;;
56567;SDS011;42456;49.956;20.004;2023-11-22T16:27:34;15.40;;;6.90;;
56567;SDS011;42456;49.956;20.004;2023-11-22T16:30:01;14.20;;;7.10;;
56567;SDS011;42456;49.956;20.004;2023-11-22T16:32:30;16.30;;;9.00;;
56567;SDS011;42456;49.956;20.004;2023-11-22T16:37:42;15.00;;;7.10;;
56567;SDS011;42456;49.956;20.004;2023-11-22T16:40:22;16.10;;;8.60;;
56567;SDS011;42456;49.956;20.004;2023-11-22T16:45:48;16.20;;;6.70;;
56567;SDS011;42456;49.956;20.004;2023-11-22T16:48:19;17.20;;;7.10;;
56567;SDS011;42456;49.956;20.004;2023-11-22T16:51:26;15.50;;;7.30;;
56567;SDS011;42456;49.956;20.004;2023-11-22T16:54:08;13.80;;;6.30;;
56567;SDS011;42456;49.956;20.004;2023-11-22T16:57:03;14.50;;;7.20;;